Time;durP1;ratioP1;P1;durP2;ratioP2;P2;SDS_P1;SDS_P2;PMS_P1;PMS_P2;Temp;Humidity;BMP_temperature;BMP_pressure;BME280_temperature;BME280_humidity;BME280_pressure;Samples;Min_cycle;Max_cycle;Signal;HPM_P1;HPM_P2
2022/12/21 00:01:15;;;;;;;27.50;12.73;;;2.00;99.90;;;;;;5049996;28;20396;-60
2022/12/21 00:03:43;;;;;;;22.88;11.27;;;2.00;99.90;;;;;;5073592;28;20405;-60
2022/12/21 00:06:11;;;;;;;23.65;11.25;;;2.10;99.90;;;;;;5091303;28;20040;-60
2022/12/21 00:08:41;;;;;;;23.45;10.40;;;1.90;99.90;;;;;;5076283;28;20033;-61
2022/12/21 00:11:09;;;;;;;20.48;10.10;;;1.90;99.90;;;;;;5076953;28;20048;-60
2022/12/21 00:13:36;;;;;;;20.35;11.30;;;1.90;99.90;;;;;;5085146;28;20546;-60
2022/12/21 00:16:06;;;;;;;17.10;8.52;;;2.00;99.90;;;;;;5072084;28;20452;-60
2022/12/21 00:18:34;;;;;;;24.33;11.88;;;2.00;99.90;;;;;;5074673;28;20467;-61
2022/12/21 00:21:08;;;;;;;22.13;11.98;;;2.10;99.90;;;;;;5083639;28;20089;-61
2022/12/21 00:23:36;;;;;;;22.55;10.57;;;2.10;99.90;;;;;;5080993;28;20040;-61
2022/12/21 00:26:04;;;;;;;20.67;11.00;;;2.20;99.90;;;;;;5080394;28;20048;-60
2022/12/21 00:28:31;;;;;;;21.88;11.02;;;2.20;99.90;;;;;;5072689;28;20044;-61
2022/12/21 00:31:10;;;;;;;22.52;10.95;;;2.10;99.90;;;;;;5058834;28;20111;-61
2022/12/21 00:33:38;;;;;;;21.17;10.63;;;2.10;99.90;;;;;;5050060;28;20048;-60
2022/12/21 00:36:07;;;;;;;20.00;10.32;;;2.10;99.90;;;;;;5069376;28;20405;-61
2022/12/21 00:38:34;;;;;;;21.17;10.85;;;2.10;99.90;;;;;;5056512;28;20102;-60
2022/12/21 00:41:03;;;;;;;18.67;9.10;;;1.90;99.90;;;;;;5087281;28;20044;-60
2022/12/21 00:43:32;;;;;;;17.40;9.70;;;1.80;99.90;;;;;;5083121;28;20381;-60
2022/12/21 00:46:00;;;;;;;24.05;9.75;;;1.80;99.90;;;;;;5060447;28;20411;-60
2022/12/21 00:48:28;;;;;;;18.40;9.30;;;1.70;99.90;;;;;;5065784;28;20135;-60
2022/12/21 00:51:10;;;;;;;18.02;9.57;;;1.70;99.90;;;;;;5079763;28;20062;-61
2022/12/21 00:53:37;;;;;;;19.15;10.07;;;1.70;99.90;;;;;;5073693;28;20409;-60
2022/12/21 00:56:05;;;;;;;21.45;10.13;;;1.70;99.90;;;;;;5072293;28;20489;-61
2022/12/21 00:58:33;;;;;;;24.90;11.23;;;1.70;99.90;;;;;;5071619;28;20074;-60
2022/12/21 01:01:06;;;;;;;23.55;10.85;;;1.80;99.90;;;;;;5048694;28;20033;-61
2022/12/21 01:03:33;;;;;;;20.05;9.93;;;1.80;99.90;;;;;;5074143;28;20036;-61
2022/12/21 01:06:00;;;;;;;18.83;8.85;;;1.80;99.90;;;;;;5066704;28;20491;-61
2022/12/21 01:08:27;;;;;;;14.75;8.63;;;1.80;99.90;;;;;;5059059;28;20056;-60
2022/12/21 01:11:00;;;;;;;17.10;8.35;;;1.90;99.90;;;;;;5071770;28;20091;-61
2022/12/21 01:13:28;;;;;;;13.63;6.75;;;1.90;99.90;;;;;;5077832;28;20040;-60
2022/12/21 01:15:56;;;;;;;13.43;6.28;;;1.80;99.90;;;;;;5082844;28;20048;-60
2022/12/21 01:18:24;;;;;;;11.60;5.13;;;1.80;99.90;;;;;;5075303;28;20040;-60
2022/12/21 01:20:54;;;;;;;14.68;6.78;;;1.80;99.90;;;;;;5073115;28;20043;-60
2022/12/21 01:23:22;;;;;;;18.15;7.13;;;1.80;99.90;;;;;;5088811;28;20032;-61
2022/12/21 01:25:49;;;;;;;16.65;8.57;;;1.90;99.90;;;;;;5086081;28;20040;-61
2022/12/21 01:28:17;;;;;;;17.70;8.45;;;1.90;99.90;;;;;;5074615;28;20032;-60
2022/12/21 01:30:45;;;;;;;17.98;8.80;;;2.00;99.90;;;;;;5089215;28;20029;-60
2022/12/21 01:33:15;;;;;;;16.45;8.18;;;2.00;99.90;;;;;;5073393;28;20151;-61
2022/12/21 01:35:52;;;;;;;19.88;9.73;;;2.00;99.90;;;;;;5069985;28;20123;-61
2022/12/21 01:38:22;;;;;;;20.20;10.13;;;2.00;99.90;;;;;;5049519;28;20041;-63
2022/12/21 01:41:19;;;;;;;23.27;10.82;;;2.00;99.90;;;;;;5025601;28;20444;-63
2022/12/21 01:43:56;;;;;;;24.48;11.63;;;2.00;99.90;;;;;;5053975;28;20057;-63
2022/12/21 01:46:27;;;;;;;24.50;12.68;;;2.00;99.90;;;;;;5046892;28;20036;-63
2022/12/21 01:49:20;;;;;;;22.13;11.35;;;2.00;99.90;;;;;;5067610;28;20408;-63
2022/12/21 01:51:52;;;;;;;23.15;11.68;;;2.00;99.90;;;;;;5044548;28;20277;-63
2022/12/21 01:54:24;;;;;;;26.92;12.48;;;2.00;99.90;;;;;;5055606;28;20106;-63
2022/12/21 01:56:55;;;;;;;14.68;7.85;;;2.00;99.90;;;;;;5070998;28;20446;-63
2022/12/21 01:59:29;;;;;;;17.73;9.00;;;1.90;99.90;;;;;;5041831;28;20056;-63
2022/12/21 02:02:01;;;;;;;20.85;9.50;;;1.60;99.90;;;;;;5052760;28;20095;-63
2022/12/21 02:04:28;;;;;;;16.73;9.25;;;1.60;99.90;;;;;;5056518;28;20040;-63
2022/12/21 02:06:57;;;;;;;13.93;7.45;;;1.60;99.90;;;;;;5058534;28;20042;-63
2022/12/21 02:09:27;;;;;;;22.67;10.55;;;1.60;99.90;;;;;;5061186;28;20386;-63
2022/12/21 02:11:56;;;;;;;19.65;9.90;;;1.60;99.90;;;;;;5093125;28;20032;-63
2022/12/21 02:14:26;;;;;;;20.10;9.48;;;1.70;99.90;;;;;;5070568;28;20522;-63
2022/12/21 02:17:34;;;;;;;18.02;9.40;;;1.60;99.90;;;;;;5046934;28;20045;-63
2022/12/21 02:20:00;;;;;;;16.15;7.80;;;1.60;99.90;;;;;;5023209;28;20048;-63
2022/12/21 02:22:43;;;;;;;22.55;9.15;;;1.70;99.90;;;;;;5082658;28;20037;-63
2022/12/21 02:25:46;;;;;;;15.57;7.93;;;1.70;99.90;;;;;;5059199;28;20046;-63
2022/12/21 02:28:51;;;;;;;12.90;6.25;;;1.70;99.90;;;;;;5076009;28;20113;-63
2022/12/21 02:31:31;;;;;;;9.70;5.72;;;1.70;99.90;;;;;;5093766;28;20040;-63
2022/12/21 02:34:15;;;;;;;12.55;6.28;;;1.60;99.90;;;;;;5081026;28;20037;-63
2022/12/21 02:37:15;;;;;;;15.07;5.90;;;1.60;99.90;;;;;;5071017;28;20045;-63
2022/12/21 02:40:20;;;;;;;10.07;5.20;;;1.70;99.90;;;;;;5091762;28;20101;-63
2022/12/21 02:46:08;;;;;;;9.73;5.28;;;1.80;99.90;;;;;;5051831;28;20041;-63
2022/12/21 02:48:47;;;;;;;11.75;6.10;;;1.80;99.90;;;;;;5062510;28;20132;-63
2022/12/21 02:51:31;;;;;;;12.00;6.63;;;1.90;99.90;;;;;;5066024;28;20036;-63
2022/12/21 02:53:58;;;;;;;16.85;7.53;;;1.90;99.90;;;;;;5057895;28;20508;-63
2022/12/21 02:56:28;;;;;;;15.82;8.55;;;2.00;99.90;;;;;;5071029;28;20041;-63
2022/12/21 02:58:56;;;;;;;20.27;10.48;;;2.00;99.90;;;;;;5052100;28;20068;-63
2022/12/21 03:01:50;;;;;;;18.50;9.75;;;1.90;99.90;;;;;;5033609;28;20073;-63
2022/12/21 03:04:40;;;;;;;19.05;10.15;;;2.00;99.90;;;;;;5048006;28;20041;-63
2022/12/21 03:07:31;;;;;;;17.48;10.23;;;2.00;99.90;;;;;;5069025;28;20080;-63
2022/12/21 03:10:23;;;;;;;20.58;10.05;;;1.30;99.90;;;;;;5071382;28;20067;-63
2022/12/21 03:13:48;;;;;;;22.00;10.32;;;2.00;99.90;;;;;;5049943;28;20080;-63
2022/12/21 03:16:38;;;;;;;17.50;10.25;;;2.00;99.90;;;;;;4993314;28;20098;-63
2022/12/21 03:19:10;;;;;;;14.48;5.93;;;2.00;99.90;;;;;;4985947;28;20093;-63
2022/12/21 03:21:43;;;;;;;12.35;6.35;;;1.90;99.90;;;;;;5027856;28;20381;-63
2022/12/21 03:24:19;;;;;;;13.57;6.47;;;1.80;99.90;;;;;;5053825;28;20083;-63
2022/12/21 03:27:17;;;;;;;14.43;7.18;;;1.70;99.90;;;;;;5083722;28;20443;-63
2022/12/21 03:29:59;;;;;;;17.33;7.88;;;1.60;99.90;;;;;;5092518;28;20074;-63
2022/12/21 03:32:40;;;;;;;18.90;8.15;;;1.60;99.90;;;;;;5082020;28;20048;-63
2022/12/21 03:35:17;;;;;;;16.10;7.85;;;1.60;99.90;;;;;;5057997;28;20060;-63
2022/12/21 03:37:46;;;;;;;18.70;8.30;;;1.50;99.90;;;;;;5071553;28;20079;-63
2022/12/21 03:40:20;;;;;;;13.70;7.60;;;1.60;99.90;;;;;;5052953;28;20576;-63
2022/12/21 03:42:59;;;;;;;14.23;7.97;;;1.50;99.90;;;;;;5064225;28;20417;-63
2022/12/21 03:45:30;;;;;;;18.30;9.48;;;1.60;99.90;;;;;;5070325;28;20448;-63
2022/12/21 03:47:59;;;;;;;19.00;9.75;;;1.70;99.90;;;;;;5072088;28;20442;-63
2022/12/21 03:50:32;;;;;;;19.52;10.00;;;1.70;99.90;;;;;;5080331;28;20032;-63
2022/12/21 03:53:15;;;;;;;21.05;10.30;;;1.70;99.90;;;;;;5055370;28;20098;-63
2022/12/21 03:55:46;;;;;;;18.27;9.98;;;1.80;99.90;;;;;;5068492;28;20110;-63
2022/12/21 03:58:13;;;;;;;12.25;7.10;;;1.90;99.90;;;;;;5071162;28;20045;-63
2022/12/21 04:01:14;;;;;;;15.23;8.82;;;1.90;99.90;;;;;;5068299;28;20072;-63
2022/12/21 04:03:45;;;;;;;18.63;9.45;;;1.90;99.90;;;;;;5045329;28;20512;-63
2022/12/21 04:06:22;;;;;;;21.25;10.35;;;1.80;99.90;;;;;;5070127;28;20068;-63
2022/12/21 04:08:49;;;;;;;17.30;9.23;;;1.80;99.90;;;;;;5067974;28;20048;-63
2022/12/21 04:14:03;;;;;;;14.85;8.15;;;1.80;99.90;;;;;;5070642;28;20101;-63
2022/12/21 04:16:29;;;;;;;13.10;7.43;;;1.80;99.90;;;;;;5069346;28;20465;-63
2022/12/21 04:21:42;;;;;;;9.90;5.30;;;1.80;99.90;;;;;;5071693;28;20095;-63
2022/12/21 04:29:39;;;;;;;15.25;8.40;;;1.80;99.90;;;;;;5070178;28;20060;-63
2022/12/21 04:32:06;;;;;;;18.13;8.23;;;1.80;99.90;;;;;;5077215;28;20139;-63
2022/12/21 04:34:33;;;;;;;12.85;6.70;;;1.80;99.90;;;;;;5067352;28;20052;-63
2022/12/21 04:39:44;;;;;;;11.60;6.10;;;1.70;99.90;;;;;;5055201;28;20037;-63
2022/12/21 04:42:11;;;;;;;10.25;5.13;;;1.70;99.90;;;;;;5066394;28;20488;-63
2022/12/21 04:44:38;;;;;;;9.68;5.40;;;1.70;99.90;;;;;;5064753;28;20386;-63
2022/12/21 04:47:04;;;;;;;17.55;8.70;;;1.70;99.90;;;;;;5068937;28;20048;-63
2022/12/21 04:49:31;;;;;;;16.83;7.63;;;1.70;99.90;;;;;;5068629;28;20098;-63
2022/12/21 04:52:04;;;;;;;18.63;10.20;;;1.80;99.90;;;;;;5071173;28;20120;-63
2022/12/21 04:54:31;;;;;;;18.10;10.35;;;1.80;99.90;;;;;;5090063;28;20563;-63
2022/12/21 04:56:58;;;;;;;15.90;8.40;;;1.80;99.90;;;;;;5078808;28;20045;-63
2022/12/21 04:59:24;;;;;;;22.35;12.15;;;1.80;99.90;;;;;;5075238;28;20040;-63
2022/12/21 05:01:51;;;;;;;13.82;8.18;;;1.80;99.90;;;;;;5071323;28;20047;-63
2022/12/21 05:04:18;;;;;;;25.88;12.63;;;1.80;99.90;;;;;;5086572;28;20071;-63
2022/12/21 05:06:45;;;;;;;25.13;13.32;;;1.80;99.90;;;;;;5071275;28;20048;-63
2022/12/21 05:09:15;;;;;;;27.15;14.77;;;1.80;99.90;;;;;;5070055;28;20558;-63
2022/12/21 05:11:41;;;;;;;25.73;14.52;;;1.80;99.90;;;;;;5074456;28;20032;-62
2022/12/21 05:14:08;;;;;;;25.55;13.68;;;1.80;99.90;;;;;;5081452;28;20112;-62
2022/12/21 05:16:38;;;;;;;25.10;12.88;;;1.80;99.90;;;;;;5071304;28;20048;-63
2022/12/21 05:19:04;;;;;;;24.17;11.75;;;1.80;99.90;;;;;;5070751;28;20241;-63
2022/12/21 05:21:32;;;;;;;16.88;8.40;;;1.80;99.90;;;;;;5075364;28;20040;-62
2022/12/21 05:23:58;;;;;;;21.20;11.82;;;1.80;99.90;;;;;;5069811;28;20044;-63
2022/12/21 05:26:25;;;;;;;25.73;13.25;;;1.90;99.90;;;;;;5067252;28;20044;-63
2022/12/21 05:28:52;;;;;;;19.25;11.38;;;1.90;99.90;;;;;;5063314;28;20033;-63
2022/12/21 05:31:19;;;;;;;22.27;10.90;;;1.90;99.90;;;;;;5069405;28;20056;-63
2022/12/21 05:33:46;;;;;;;;;;;1.90;99.90;;;;;;5069165;28;20044;-63
2022/12/21 05:36:16;;;;;;;14.40;7.00;;;1.80;99.90;;;;;;5069801;28;19920;-63
2022/12/21 05:38:43;;;;;;;16.50;7.53;;;1.80;99.90;;;;;;5060273;28;20071;-63
2022/12/21 05:41:12;;;;;;;19.45;8.43;;;1.80;99.90;;;;;;5066398;28;20045;-63
2022/12/21 05:43:39;;;;;;;15.43;8.57;;;1.80;99.90;;;;;;5069310;28;20072;-63
2022/12/21 05:46:08;;;;;;;14.77;8.15;;;1.80;99.90;;;;;;5065147;28;20132;-63
2022/12/21 05:48:35;;;;;;;14.73;7.30;;;1.70;99.90;;;;;;5062851;28;20496;-63
2022/12/21 05:51:09;;;;;;;13.43;6.47;;;1.80;99.90;;;;;;5070885;28;20067;-63
2022/12/21 05:53:41;;;;;;;12.63;6.35;;;1.80;99.90;;;;;;5058957;28;20049;-63
2022/12/21 05:56:08;;;;;;;11.18;6.15;;;1.80;99.90;;;;;;5057724;28;20049;-63
2022/12/21 05:58:35;;;;;;;13.38;6.63;;;1.80;99.90;;;;;;5055104;28;20037;-63
2022/12/21 06:01:05;;;;;;;17.27;7.30;;;1.80;99.90;;;;;;5065640;28;20072;-63
2022/12/21 06:03:32;;;;;;;15.27;7.68;;;1.90;99.90;;;;;;5065881;28;20533;-63
2022/12/21 06:06:07;;;;;;;19.52;9.45;;;1.90;99.90;;;;;;5068433;28;20091;-63
2022/12/21 06:08:34;;;;;;;35.40;14.00;;;2.00;99.90;;;;;;5061175;28;20429;-63
2022/12/21 06:11:21;;;;;;;52.67;15.73;;;1.90;99.90;;;;;;5062893;28;20485;-63
2022/12/21 06:13:48;;;;;;;40.55;12.02;;;1.90;99.90;;;;;;5087943;28;20341;-63
2022/12/21 06:16:17;;;;;;;16.20;7.40;;;2.00;99.90;;;;;;5042974;28;20051;-63
2022/12/21 06:18:47;;;;;;;26.05;11.75;;;2.00;99.90;;;;;;5043152;28;20040;-63
2022/12/21 06:21:15;;;;;;;23.38;10.23;;;2.00;99.90;;;;;;5092695;28;20047;-63
2022/12/21 06:23:43;;;;;;;22.27;11.38;;;2.10;99.90;;;;;;5087746;28;20461;-62
2022/12/21 06:26:15;;;;;;;22.67;10.23;;;2.10;99.90;;;;;;5081591;28;20094;-63
2022/12/21 06:28:46;;;;;;;19.63;10.45;;;2.10;99.90;;;;;;5080341;28;20063;-63
2022/12/21 06:31:13;;;;;;;24.02;11.23;;;2.10;99.90;;;;;;5063161;28;20041;-63
2022/12/21 06:33:40;;;;;;;22.38;10.52;;;2.10;99.90;;;;;;5061311;28;20511;-63
2022/12/21 06:36:10;;;;;;;26.33;12.82;;;2.10;99.90;;;;;;5072718;28;20044;-63
2022/12/21 06:39:22;;;;;;;27.55;14.55;;;2.20;99.90;;;;;;5062994;28;20040;-62
2022/12/21 06:41:48;;;;;;;32.67;17.08;;;2.20;99.90;;;;;;5072377;28;20098;-62
2022/12/21 06:44:15;;;;;;;26.88;12.07;;;2.20;99.90;;;;;;5091063;28;20097;-62
2022/12/21 06:46:42;;;;;;;22.33;11.05;;;2.10;99.90;;;;;;5079101;28;20076;-62
2022/12/21 06:49:09;;;;;;;20.10;10.70;;;2.20;99.90;;;;;;5076854;28;20033;-62
2022/12/21 06:51:35;;;;;;;31.17;13.63;;;2.20;99.90;;;;;;5064327;28;20036;-62
2022/12/21 06:54:02;;;;;;;32.05;14.50;;;2.30;99.90;;;;;;5069000;28;20086;-62
2022/12/21 06:56:31;;;;;;;30.45;14.90;;;2.30;99.90;;;;;;5065058;28;20699;-63
2022/12/21 06:58:58;;;;;;;44.58;20.40;;;2.20;99.90;;;;;;5070814;28;20036;-62
2022/12/21 07:01:27;;;;;;;64.88;28.15;;;2.20;99.90;;;;;;5071190;28;20036;-62
2022/12/21 07:03:55;;;;;;;29.48;14.43;;;2.20;99.90;;;;;;5091131;28;20036;-62
2022/12/21 07:06:24;;;;;;;29.33;14.02;;;2.30;99.90;;;;;;5091503;28;20055;-62
2022/12/21 07:08:52;;;;;;;29.42;13.77;;;2.30;99.90;;;;;;5071067;28;20045;-62
2022/12/21 07:11:21;;;;;;;23.65;12.43;;;2.30;99.90;;;;;;5072945;28;20040;-63
2022/12/21 07:13:49;;;;;;;31.42;14.95;;;2.30;99.90;;;;;;5080559;28;20040;-63
2022/12/21 07:16:16;;;;;;;26.65;13.88;;;2.40;99.90;;;;;;5044561;28;20106;-62
2022/12/21 07:18:43;;;;;;;29.98;14.00;;;2.30;99.90;;;;;;5063976;28;20036;-62
2022/12/21 07:21:13;;;;;;;28.85;14.07;;;2.30;99.90;;;;;;5084151;28;20089;-62
2022/12/21 07:23:41;;;;;;;34.17;13.77;;;2.30;99.90;;;;;;5072374;28;20063;-62
2022/12/21 07:26:09;;;;;;;;;;;2.30;99.90;;;;;;5078528;28;20044;-62
2022/12/21 07:28:35;;;;;;;22.10;9.00;;;2.30;99.90;;;;;;5092508;28;19977;-63
2022/12/21 07:31:04;;;;;;;18.48;8.93;;;2.30;99.90;;;;;;5077879;28;20037;-63
2022/12/21 07:33:31;;;;;;;20.60;11.30;;;2.30;99.90;;;;;;5063781;28;20564;-62
2022/12/21 07:35:59;;;;;;;19.60;10.68;;;2.30;99.90;;;;;;5091274;28;20503;-62
2022/12/21 07:46:52;;;;;;;23.75;12.00;;;2.40;99.90;;;;;;5041743;27;20039;-60
2022/12/21 07:49:23;;;;;;;21.08;11.20;;;2.40;99.90;;;;;;5109301;27;20047;-60
2022/12/21 07:51:49;;;;;;;20.40;8.80;;;2.50;99.90;;;;;;5132040;27;20129;-59
2022/12/21 07:54:16;;;;;;;28.73;13.75;;;2.50;99.90;;;;;;5132472;27;20051;-60
2022/12/21 07:56:43;;;;;;;28.20;14.18;;;2.50;99.90;;;;;;5125200;27;20040;-60
2022/12/21 07:59:10;;;;;;;22.52;12.35;;;2.50;99.90;;;;;;5132627;27;20054;-60
2022/12/21 08:01:37;;;;;;;28.45;14.43;;;2.60;99.90;;;;;;5129168;27;20043;-60
2022/12/21 08:04:06;;;;;;;33.50;15.30;;;2.60;99.90;;;;;;5119690;27;20119;-60
2022/12/21 08:06:34;;;;;;;42.42;19.70;;;2.70;99.90;;;;;;5111182;27;20044;-60
2022/12/21 08:09:07;;;;;;;34.40;17.13;;;2.80;99.90;;;;;;5110366;28;20124;-60
2022/12/21 08:11:34;;;;;;;35.22;17.35;;;2.80;99.90;;;;;;5118853;27;20151;-60
2022/12/21 08:14:01;;;;;;;22.83;11.35;;;2.80;99.90;;;;;;5131161;27;20122;-60
2022/12/21 08:16:27;;;;;;;47.17;19.63;;;3.00;99.90;;;;;;5132446;27;20138;-60
2022/12/21 08:18:55;;;;;;;77.68;28.42;;;3.00;99.90;;;;;;5131294;27;20050;-60
2022/12/21 08:21:22;;;;;;;36.90;17.63;;;3.00;99.90;;;;;;5125256;27;20032;-60
2022/12/21 08:23:49;;;;;;;34.85;18.65;;;3.00;99.90;;;;;;5130004;27;20100;-60
2022/12/21 08:26:15;;;;;;;26.83;14.55;;;3.00;99.90;;;;;;5132340;27;20071;-60
2022/12/21 08:28:43;;;;;;;26.08;14.05;;;3.10;99.90;;;;;;5129486;27;20043;-60
2022/12/21 08:31:16;;;;;;;22.42;11.07;;;3.20;99.90;;;;;;5117365;27;20596;-60
2022/12/21 08:33:43;;;;;;;19.33;10.32;;;3.20;99.90;;;;;;5111600;27;20078;-60
2022/12/21 08:36:16;;;;;;;17.38;9.20;;;3.20;99.90;;;;;;5125342;27;20437;-60
2022/12/21 08:38:44;;;;;;;15.45;7.85;;;3.20;99.90;;;;;;5130073;27;20483;-60
2022/12/21 08:41:30;;;;;;;15.07;8.38;;;3.30;99.90;;;;;;5131233;27;20049;-60
2022/12/21 08:43:57;;;;;;;16.58;8.70;;;3.30;99.90;;;;;;5120188;27;20035;-60
2022/12/21 08:46:24;;;;;;;17.63;8.68;;;3.30;99.90;;;;;;5120167;27;20042;-60
2022/12/21 08:48:51;;;;;;;13.93;6.97;;;3.30;99.90;;;;;;5118303;27;20424;-60
2022/12/21 08:51:18;;;;;;;13.32;7.30;;;3.40;99.90;;;;;;5125178;27;20087;-60
2022/12/21 08:53:44;;;;;;;13.50;7.13;;;3.40;99.90;;;;;;5129152;27;20096;-60
2022/12/21 08:56:18;;;;;;;16.75;7.15;;;3.40;99.90;;;;;;5110875;28;20052;-61
2022/12/21 08:58:44;;;;;;;16.90;7.45;;;3.30;99.90;;;;;;5117680;28;20039;-60
2022/12/21 09:01:11;;;;;;;13.70;6.05;;;3.40;99.90;;;;;;5117116;27;20088;-61
2022/12/21 09:03:38;;;;;;;21.10;9.43;;;3.40;99.90;;;;;;5128407;28;20445;-60
2022/12/21 09:06:05;;;;;;;20.30;10.43;;;3.40;99.90;;;;;;5130406;28;20039;-60
2022/12/21 09:08:36;;;;;;;18.90;10.48;;;3.50;99.90;;;;;;5131286;28;20039;-60
2022/12/21 09:11:06;;;;;;;20.13;10.35;;;3.40;99.90;;;;;;5116125;28;20100;-60
2022/12/21 09:13:33;;;;;;;23.85;11.05;;;3.40;99.90;;;;;;5130835;28;20092;-60
2022/12/21 09:15:59;;;;;;;21.58;10.88;;;3.40;99.90;;;;;;5131326;28;20130;-60
2022/12/21 09:18:26;;;;;;;19.25;10.45;;;3.30;99.90;;;;;;5129915;28;20053;-60
2022/12/21 09:20:54;;;;;;;22.27;10.85;;;3.30;99.90;;;;;;5120350;28;20043;-60
2022/12/21 09:23:21;;;;;;;20.80;11.05;;;3.30;99.90;;;;;;5131302;28;20043;-60
2022/12/21 09:25:48;;;;;;;22.48;10.10;;;3.30;99.90;;;;;;5130591;28;20074;-61
2022/12/21 09:28:15;;;;;;;12.77;8.27;;;3.20;99.90;;;;;;5123576;28;20108;-60
2022/12/21 09:30:41;;;;;;;24.80;12.05;;;3.20;99.90;;;;;;5118409;28;20071;-60
2022/12/21 09:33:08;;;;;;;19.30;11.07;;;3.10;99.90;;;;;;5130243;28;20075;-60
2022/12/21 09:35:37;;;;;;;24.75;12.63;;;3.10;99.90;;;;;;5129522;28;20456;-60
2022/12/21 09:38:04;;;;;;;32.08;15.25;;;3.10;99.90;;;;;;5131388;28;20457;-60
2022/12/21 09:40:31;;;;;;;;;;;3.10;99.90;;;;;;5126104;28;20065;-60
2022/12/21 09:43:01;;;;;;;39.85;17.52;;;3.10;99.90;;;;;;5132228;27;19927;-60
2022/12/21 09:46:02;;;;;;;28.30;14.27;;;3.10;99.90;;;;;;5115768;27;20134;-60
2022/12/21 09:48:50;;;;;;;27.00;14.25;;;3.20;99.90;;;;;;5121747;27;20488;-60
2022/12/21 09:51:20;;;;;;;;;;;3.30;99.90;;;;;;5135113;27;20043;-60
2022/12/21 09:53:57;;;;;;;28.10;12.07;;;3.30;99.90;;;;;;5134800;27;19926;-60
2022/12/21 09:56:26;;;;;;;23.88;11.77;;;3.40;99.90;;;;;;5129400;27;20108;-60
2022/12/21 09:58:54;;;;;;;26.52;12.52;;;3.40;99.90;;;;;;5133765;27;20456;-60
2022/12/21 10:01:27;;;;;;;26.38;12.52;;;3.50;99.90;;;;;;5134151;27;20047;-60
2022/12/21 10:04:18;;;;;;;25.13;12.35;;;3.40;99.90;;;;;;5134996;27;20130;-60
2022/12/21 10:07:37;;;;;;;29.25;13.05;;;3.40;99.90;;;;;;5126408;27;20487;-60
2022/12/21 10:10:26;;;;;;;26.92;12.73;;;3.40;99.90;;;;;;5133902;27;20100;-60
2022/12/21 10:13:15;;;;;;;29.15;13.60;;;3.40;99.90;;;;;;5129481;27;20067;-60
2022/12/21 10:15:53;;;;;;;22.17;12.70;;;3.50;99.90;;;;;;5115888;27;20092;-60
2022/12/21 10:18:45;;;;;;;25.33;12.90;;;3.60;99.90;;;;;;5133385;27;20423;-59
2022/12/21 10:21:36;;;;;;;35.45;15.30;;;3.70;99.90;;;;;;5113630;27;20556;-60
2022/12/21 10:24:04;;;;;;;31.88;14.57;;;3.80;99.90;;;;;;5125812;27;20395;-60
2022/12/21 10:26:35;;;;;;;24.77;14.10;;;3.80;99.90;;;;;;5134478;27;20099;-60
2022/12/21 10:29:12;;;;;;;27.40;13.45;;;4.00;99.90;;;;;;5131659;27;20432;-60
2022/12/21 10:31:44;;;;;;;30.15;13.48;;;4.10;99.90;;;;;;5134068;27;20055;-60
2022/12/21 10:34:15;;;;;;;31.45;13.95;;;4.10;99.90;;;;;;5132773;27;20092;-60
2022/12/21 10:36:43;;;;;;;23.40;12.23;;;4.20;99.90;;;;;;5132086;27;20043;-60
2022/12/21 10:39:14;;;;;;;24.55;12.80;;;4.10;99.90;;;;;;5132958;27;20448;-60
2022/12/21 10:42:06;;;;;;;29.38;15.10;;;4.00;99.90;;;;;;5133692;27;20096;-60
2022/12/21 10:44:40;;;;;;;13.33;7.63;;;4.10;99.90;;;;;;5130227;27;20072;-60
2022/12/21 10:47:14;;;;;;;20.98;11.18;;;4.20;99.90;;;;;;5126554;27;20087;-60
2022/12/21 10:49:47;;;;;;;20.63;11.38;;;4.30;99.90;;;;;;5114612;27;20104;-60
2022/12/21 10:52:40;;;;;;;24.02;11.25;;;4.40;99.90;;;;;;5132794;27;20449;-60
2022/12/21 10:55:26;;;;;;;23.50;10.75;;;4.40;99.90;;;;;;5124297;27;20123;-61
2022/12/21 10:58:04;;;;;;;28.23;13.23;;;4.30;99.90;;;;;;5121177;27;20055;-60
2022/12/21 11:00:39;;;;;;;27.88;12.85;;;4.40;99.90;;;;;;5113572;28;20089;-60
2022/12/21 11:03:26;;;;;;;25.08;10.85;;;4.50;99.90;;;;;;5124875;27;20039;-60
2022/12/21 11:05:54;;;;;;;25.45;11.73;;;4.50;99.90;;;;;;5133341;27;20043;-61
2022/12/21 11:08:20;;;;;;;;;;;4.50;99.90;;;;;;5133571;27;20043;-60
2022/12/21 11:10:50;;;;;;;20.73;10.93;;;4.50;99.90;;;;;;5115191;27;19920;-60
2022/12/21 11:13:26;;;;;;;23.02;10.95;;;4.60;99.90;;;;;;5129622;27;20051;-60
2022/12/21 11:16:06;;;;;;;19.98;11.77;;;4.60;99.90;;;;;;5132912;27;20449;-60
2022/12/21 11:18:39;;;;;;;29.60;14.38;;;4.70;99.90;;;;;;5113633;28;20052;-61
2022/12/21 11:21:31;;;;;;;27.00;13.13;;;4.70;99.90;;;;;;5116292;27;20479;-60
2022/12/21 11:24:03;;;;;;;22.40;12.25;;;4.70;99.90;;;;;;5113515;28;20048;-60
2022/12/21 11:26:35;;;;;;;20.27;10.75;;;4.80;99.90;;;;;;5111880;28;20122;-60
2022/12/21 11:29:06;;;;;;;23.13;12.05;;;4.90;99.90;;;;;;5112278;28;20139;-61
2022/12/21 11:31:35;;;;;;;20.77;11.07;;;5.00;99.90;;;;;;5128354;27;20530;-61
2022/12/21 11:34:26;;;;;;;21.38;11.43;;;5.00;99.90;;;;;;5133269;27;20050;-60
2022/12/21 11:36:59;;;;;;;20.02;11.60;;;5.00;99.90;;;;;;5132298;27;20084;-60
2022/12/21 11:39:39;;;;;;;17.55;10.50;;;5.00;99.90;;;;;;5122675;27;20081;-60
2022/12/21 11:42:16;;;;;;;22.23;11.52;;;5.00;99.90;;;;;;5131689;27;20069;-61
2022/12/21 11:44:43;;;;;;;20.55;11.85;;;4.90;99.90;;;;;;5132086;27;20510;-60
2022/12/21 11:47:39;;;;;;;20.00;10.45;;;4.80;99.90;;;;;;5132538;27;20470;-60
2022/12/21 11:50:20;;;;;;;18.70;10.38;;;4.70;99.90;;;;;;5122623;27;20068;-60
2022/12/21 11:53:10;;;;;;;21.02;11.05;;;4.80;99.90;;;;;;5132587;27;20054;-60
2022/12/21 11:55:46;;;;;;;25.20;12.13;;;4.90;99.90;;;;;;5131777;27;20405;-60
2022/12/21 11:58:31;;;;;;;20.10;11.10;;;4.80;99.90;;;;;;5131160;27;20539;-60
2022/12/21 12:01:22;;;;;;;26.33;14.20;;;4.90;99.90;;;;;;5120289;27;20097;-60
2022/12/21 12:04:02;;;;;;;23.73;11.65;;;5.10;99.90;;;;;;5112215;28;20048;-60
2022/12/21 12:06:46;;;;;;;22.58;11.48;;;5.20;99.90;;;;;;5111547;27;20503;-60
2022/12/21 12:09:28;;;;;;;31.23;12.82;;;5.20;99.90;;;;;;5117720;27;20043;-60
2022/12/21 12:12:18;;;;;;;29.48;13.57;;;5.20;99.90;;;;;;5132671;27;20522;-60
2022/12/21 12:15:04;;;;;;;40.92;16.52;;;5.20;99.90;;;;;;5111343;27;20103;-60
2022/12/21 12:17:57;;;;;;;23.05;11.93;;;5.20;99.90;;;;;;5115647;27;20063;-60
2022/12/21 12:20:34;;;;;;;16.60;9.57;;;5.20;99.90;;;;;;5111130;27;20075;-60
2022/12/21 12:23:34;;;;;;;17.27;9.95;;;5.10;99.90;;;;;;5114740;27;20043;-60
2022/12/21 12:26:30;;;;;;;21.38;9.82;;;5.00;99.90;;;;;;5132749;27;20070;-60
2022/12/21 12:29:19;;;;;;;19.55;9.85;;;4.90;99.90;;;;;;5124815;27;20035;-60
2022/12/21 12:32:14;;;;;;;20.13;10.07;;;4.90;99.90;;;;;;5120012;27;20374;-60
2022/12/21 12:35:18;;;;;;;24.45;9.98;;;5.00;99.90;;;;;;5111063;28;20075;-60
2022/12/21 12:38:14;;;;;;;19.70;11.10;;;5.00;99.90;;;;;;5131239;27;20101;-60
2022/12/21 12:41:08;;;;;;;20.15;10.43;;;5.10;99.90;;;;;;5131935;27;20043;-60
2022/12/21 12:43:52;;;;;;;22.38;10.75;;;5.20;99.90;;;;;;5118144;27;20031;-61
2022/12/21 12:46:46;;;;;;;30.30;14.57;;;5.30;99.90;;;;;;5132266;27;20031;-60
2022/12/21 12:49:58;;;;;;;32.05;15.02;;;5.40;99.90;;;;;;5125984;27;20058;-61
2022/12/21 12:53:27;;;;;;;26.45;12.18;;;5.40;99.90;;;;;;5125226;27;20129;-60
2022/12/21 12:56:03;;;;;;;20.55;11.00;;;5.50;99.90;;;;;;5028274;28;20084;-60
2022/12/21 12:58:38;;;;;;;;;;;5.50;99.90;;;;;;5112705;27;20043;-60
2022/12/21 13:01:15;;;;;;;24.30;12.50;;;5.50;99.90;;;;;;5123843;27;19919;-60
2022/12/21 13:03:58;;;;;;;24.77;12.77;;;5.50;99.90;;;;;;5130304;27;20085;-60
2022/12/21 13:06:48;;;;;;;21.63;11.98;;;5.30;99.90;;;;;;5125165;28;20031;-60
2022/12/21 13:09:46;;;;;;;25.25;14.43;;;5.20;99.90;;;;;;5119820;28;20131;-60
2022/12/21 13:12:40;;;;;;;33.45;16.63;;;5.10;99.90;;;;;;5109477;28;20100;-60
2022/12/21 13:15:21;;;;;;;26.42;14.63;;;5.10;99.90;;;;;;5110976;28;20147;-60
2022/12/21 13:18:04;;;;;;;35.58;17.75;;;5.10;99.90;;;;;;5130171;27;20043;-60
2022/12/21 13:20:33;;;;;;;35.08;20.35;;;5.10;99.90;;;;;;5116563;27;20074;-60
2022/12/21 13:23:13;;;;;;;31.30;16.23;;;5.10;99.90;;;;;;5134315;27;20574;-60
2022/12/21 13:25:45;;;;;;;32.92;17.08;;;5.10;99.90;;;;;;5127104;27;20454;-60
2022/12/21 13:28:29;;;;;;;29.30;16.33;;;5.10;99.90;;;;;;5123511;27;20092;-60
2022/12/21 13:31:01;;;;;;;27.42;14.77;;;5.20;99.90;;;;;;5125137;27;20322;-60
2022/12/21 13:33:31;;;;;;;26.42;15.15;;;5.20;99.90;;;;;;5135355;27;20047;-60
2022/12/21 13:36:08;;;;;;;28.45;15.20;;;5.30;99.90;;;;;;5134986;27;20043;-60
2022/12/21 13:39:39;;;;;;;29.50;16.23;;;5.20;99.90;;;;;;5103188;22;20045;-74
2022/12/21 13:42:14;;;;;;;40.58;17.05;;;5.20;99.90;;;;;;5062104;28;20045;-74
2022/12/21 13:44:46;;;;;;;47.80;23.05;;;5.20;99.90;;;;;;5073347;28;20079;-74
2022/12/21 13:47:14;;;;;;;74.68;31.83;;;5.30;99.90;;;;;;5069067;28;20076;-73